2022年8月11日 15:002022年8月12日 03:00有效
时间
星期四
15:00
星期四
16:00
星期四
17:00
星期四
18:00
星期四
19:00
星期四
20:00
星期四
21:00
星期四
22:00
星期四
23:00
星期五
00:00
星期五
01:00
星期五
02:00
代码
VFR
VFR
VFR
VFR
VFR
VFR
VFR
VFR
VFR
VFR
VFR
VFR
天气
天空晴朗
天空晴朗
天空晴朗
天空晴朗
天空晴朗
天空晴朗
天空晴朗
天空晴朗
天空晴朗
天空晴朗
天空晴朗
天空晴朗
能见度
10 km+
10 km+
10 km+
10 km+
10 km+
10 km+
10 km+
10 km+
10 km+
10 km+
10 km+
10 km+
天花板
-
-
-
-
-
-
-
-
-
-
-
-
090°
090°
090°
090°
090°
090°
090°
090°
090°
090°
090°
090°
090°
090°
090°
090°
090°
090°
090°
090°
090°
090°
090°
090°
速度
8 kt
8 kt
8 kt
8 kt
8 kt
8 kt
8 kt
8 kt
8 kt
8 kt
8 kt
8 kt
阵风
温度/星期日
21:08

原版的

TAF EHVK 111222Z 1113/1201 09008KT CAVOK

TAF Teuge International Airport

Teuge International Airport是Deventer,荷兰中的中型机场。 该机场有一条跑道: 8/26. 该领域的国际民航组织标志是EHTE 它的国际航空运输协会代码是TGE.

这份报告是针对2022年8月11日 14:22, 当地时间在Volkel Air Base进行的。 从2022年8月11日 15:00到2022年8月12日 03:00, 当地时间有效.

预报

  • 在星期四 15:00和星期五 03:00之间

    • 风: 风来自090°方向,速度为8 kt。
    • CAVOK: 天气为CAVOK。这意味着在5.000 ft或MSA(最低安全高度)以下(以较高者为准)以下没有云。这也意味着没有观测到积雨云或高耸的积云,可见度为10 km 或者更多或更高。此外,不会有雾,降雨或其他重要天气。

白天

今天,太阳从06:12升起,在21:09降落。 这适用于Teuge International Airport,世界夏令时可能有所不同。 当地时间与世界标准时间之间的时差为+2 小时。 夏令时目前正在进行中。

我们和第三方通过cookies跟踪您在我们网站上的上网行为。如果您继续,我们认为您同意我们的cookie政策。 了解更多